createdAt,value
2019-01-20T00:00:06.158Z,27.57
2019-01-20T00:03:11.146Z,24.53
2019-01-20T00:06:14.294Z,24.37
2019-01-20T00:09:17.506Z,26.03
2019-01-20T00:12:20.682Z,24.27
2019-01-20T00:15:24.123Z,25.17
2019-01-20T00:18:27.174Z,23.13
2019-01-20T00:21:30.343Z,23.00
2019-01-20T00:24:33.463Z,22.50
2019-01-20T00:27:36.810Z,22.93
2019-01-20T00:30:39.858Z,23.00
2019-01-20T00:33:42.987Z,20.50
2019-01-20T00:36:46.138Z,21.03
2019-01-20T00:39:49.373Z,19.90
2019-01-20T00:42:52.429Z,20.20
2019-01-20T00:45:55.466Z,21.17
2019-01-20T00:48:58.510Z,22.90
2019-01-20T00:52:02.303Z,25.30
2019-01-20T00:55:07.124Z,26.53
2019-01-20T00:58:10.698Z,25.83
2019-01-20T01:01:13.857Z,28.30
2019-01-20T01:04:17.506Z,28.57
2019-01-20T01:07:21.474Z,28.67
2019-01-20T01:10:26.417Z,31.23
2019-01-20T01:13:29.574Z,32.77
2019-01-20T01:16:32.987Z,32.10
2019-01-20T01:19:36.095Z,30.93
2019-01-20T01:22:39.343Z,33.07
2019-01-20T01:25:42.586Z,32.57
2019-01-20T01:28:45.830Z,34.07
2019-01-20T01:31:48.879Z,34.30
2019-01-20T01:34:52.274Z,30.60
2019-01-20T01:37:55.471Z,32.20
2019-01-20T01:40:58.714Z,32.60
2019-01-20T01:44:01.966Z,33.57
2019-01-20T01:47:05.406Z,33.77
2019-01-20T01:50:09.249Z,31.70
2019-01-20T01:53:12.512Z,30.57
2019-01-20T01:56:15.870Z,30.60
2019-01-20T01:59:19.408Z,28.80
2019-01-20T02:02:22.466Z,29.80
2019-01-20T02:05:25.730Z,27.87
2019-01-20T02:08:28.855Z,28.73
2019-01-20T02:11:32.028Z,27.67
2019-01-20T02:14:35.143Z,26.17
2019-01-20T02:17:38.238Z,28.43
2019-01-20T02:20:41.354Z,28.37
2019-01-20T02:23:44.556Z,27.63
2019-01-20T02:26:47.842Z,27.17
2019-01-20T02:29:51.047Z,28.10
2019-01-20T02:32:54.231Z,28.00
2019-01-20T02:35:57.330Z,26.93
2019-01-20T02:39:00.414Z,26.73
2019-01-20T02:42:03.509Z,27.07
2019-01-20T02:45:07.388Z,26.30
2019-01-20T02:48:10.575Z,27.40
2019-01-20T02:51:13.914Z,27.53
2019-01-20T02:54:17.091Z,28.03
2019-01-20T02:57:20.299Z,26.73
2019-01-20T03:00:24.158Z,26.97
2019-01-20T03:03:27.205Z,27.63
2019-01-20T03:06:30.301Z,26.60
2019-01-20T03:09:33.389Z,29.13
2019-01-20T03:12:36.592Z,26.73
2019-01-20T03:15:39.784Z,28.00
2019-01-20T03:18:42.978Z,29.20
2019-01-20T03:21:46.070Z,27.93
2019-01-20T03:24:49.338Z,28.53
2019-01-20T03:27:52.465Z,24.63
2019-01-20T03:30:55.600Z,27.60
2019-01-20T03:33:58.850Z,26.90
2019-01-20T03:37:02.115Z,26.27
2019-01-20T03:40:06.741Z,24.60
2019-01-20T03:43:09.906Z,26.90
2019-01-20T03:46:12.963Z,24.60
2019-01-20T03:49:17.113Z,25.47
2019-01-20T03:52:20.275Z,25.50
2019-01-20T03:55:23.926Z,23.87
2019-01-20T03:58:27.079Z,24.03
2019-01-20T04:01:30.315Z,24.60
2019-01-20T04:04:36.430Z,24.27
2019-01-20T04:07:39.559Z,26.00
2019-01-20T04:10:42.623Z,25.03
2019-01-20T04:13:46.152Z,26.07
2019-01-20T04:16:49.322Z,24.27
2019-01-20T04:19:52.454Z,26.87
2019-01-20T04:22:55.542Z,24.37
2019-01-20T04:25:58.730Z,23.93
2019-01-20T04:29:01.791Z,24.70
2019-01-20T04:32:05.100Z,25.33
2019-01-20T04:35:08.592Z,26.20
2019-01-20T04:38:11.722Z,25.57
2019-01-20T04:41:14.890Z,24.60
2019-01-20T04:44:18.117Z,25.47
2019-01-20T04:47:21.167Z,24.63
2019-01-20T04:50:25.778Z,23.63
2019-01-20T04:53:29.178Z,24.07
2019-01-20T04:56:32.322Z,24.33
2019-01-20T04:59:35.482Z,22.40
2019-01-20T05:02:38.829Z,22.90
2019-01-20T05:05:41.972Z,22.73
2019-01-20T05:08:45.215Z,24.23
2019-01-20T05:11:48.362Z,23.63
2019-01-20T05:14:51.609Z,23.90
2019-01-20T05:17:56.627Z,24.60
2019-01-20T05:20:59.805Z,21.97
2019-01-20T05:24:02.883Z,23.53
2019-01-20T05:27:06.024Z,21.50
2019-01-20T05:30:12.826Z,19.83
2019-01-20T05:33:16.121Z,20.77
2019-01-20T05:36:19.354Z,19.57
2019-01-20T05:39:25.710Z,21.23
2019-01-20T05:42:28.914Z,21.03
2019-01-20T05:45:32.265Z,22.17
2019-01-20T05:48:35.507Z,20.70
2019-01-20T05:51:38.723Z,20.43
2019-01-20T05:54:41.902Z,21.17
2019-01-20T05:57:45.915Z,20.03
2019-01-20T06:00:49.111Z,21.10
2019-01-20T06:03:52.284Z,20.37
2019-01-20T06:06:55.503Z,20.23
2019-01-20T06:09:58.601Z,21.63
2019-01-20T06:13:01.786Z,20.77
2019-01-20T06:16:04.878Z,19.53
2019-01-20T06:19:07.970Z,20.87
2019-01-20T06:22:11.071Z,21.83
2019-01-20T06:25:14.263Z,20.37
2019-01-20T06:28:17.358Z,20.93
2019-01-20T06:31:20.447Z,21.20
2019-01-20T06:34:23.546Z,21.67
2019-01-20T06:37:26.729Z,18.97
2019-01-20T06:40:31.191Z,20.77
2019-01-20T06:43:35.270Z,22.27
2019-01-20T06:46:38.470Z,20.77
2019-01-20T06:49:41.663Z,19.37
2019-01-20T06:52:44.758Z,21.43
2019-01-20T06:55:47.851Z,21.63
2019-01-20T06:58:51.050Z,23.20
2019-01-20T07:01:54.238Z,20.70
2019-01-20T07:04:57.334Z,20.53
2019-01-20T07:08:00.525Z,19.87
2019-01-20T07:11:03.929Z,21.40
2019-01-20T07:14:07.022Z,22.30
2019-01-20T07:17:10.262Z,19.83
2019-01-20T07:20:13.617Z,19.87
2019-01-20T07:23:16.866Z,22.00
2019-01-20T07:26:20.009Z,21.13
2019-01-20T07:29:24.684Z,20.50
2019-01-20T07:32:28.032Z,21.13
2019-01-20T07:35:31.274Z,20.33
2019-01-20T07:38:34.418Z,20.33
2019-01-20T07:41:37.655Z,21.43
2019-01-20T07:44:42.395Z,23.63
2019-01-20T07:47:45.799Z,34.47
2019-01-20T07:50:48.847Z,29.70
2019-01-20T07:53:51.978Z,24.70
2019-01-20T07:56:55.033Z,23.57
2019-01-20T07:59:58.161Z,25.27
2019-01-20T08:03:01.216Z,21.57
2019-01-20T08:06:04.628Z,24.20
2019-01-20T08:09:08.109Z,31.40
2019-01-20T08:12:11.346Z,25.27
2019-01-20T08:15:14.914Z,22.17
2019-01-20T08:18:18.566Z,23.70
2019-01-20T08:21:21.609Z,25.00
2019-01-20T08:24:24.741Z,23.10
2019-01-20T08:27:27.867Z,24.67
2019-01-20T08:30:30.994Z,22.30
2019-01-20T08:33:34.250Z,22.50
2019-01-20T08:36:37.494Z,22.00
2019-01-20T08:39:40.646Z,23.03
2019-01-20T08:42:43.951Z,21.00
2019-01-20T08:46:22.362Z,19.77
2019-01-20T08:49:25.602Z,23.23
2019-01-20T08:52:28.750Z,21.10
2019-01-20T08:55:32.811Z,21.30
2019-01-20T08:58:35.863Z,21.47
2019-01-20T09:01:39.156Z,20.40
2019-01-20T09:04:42.148Z,20.47
2019-01-20T09:07:45.357Z,22.20
2019-01-20T09:10:48.539Z,23.83
2019-01-20T09:13:51.702Z,21.33
2019-01-20T09:16:54.934Z,22.87
2019-01-20T09:19:58.092Z,23.40
2019-01-20T09:23:01.334Z,21.67
2019-01-20T09:26:04.874Z,24.53
2019-01-20T09:29:08.014Z,22.10
2019-01-20T09:32:11.394Z,23.53
2019-01-20T09:35:14.819Z,24.83
2019-01-20T09:38:19.196Z,24.83
2019-01-20T09:41:22.313Z,21.73
2019-01-20T09:44:25.461Z,40.93
2019-01-20T09:47:28.722Z,27.77
2019-01-20T09:50:31.918Z,25.43
2019-01-20T09:53:35.010Z,25.57
2019-01-20T09:56:38.106Z,24.10
2019-01-20T09:59:41.196Z,26.87
2019-01-20T10:02:45.897Z,22.73
2019-01-20T10:05:49.124Z,25.37
2019-01-20T10:08:52.214Z,24.10
2019-01-20T10:11:55.407Z,24.17
2019-01-20T10:14:58.610Z,22.20
2019-01-20T10:18:01.807Z,21.53
2019-01-20T10:21:05.102Z,23.97
2019-01-20T10:24:08.290Z,26.53
2019-01-20T10:27:11.391Z,28.97
2019-01-20T10:30:20.418Z,24.93
2019-01-20T10:33:23.623Z,24.13
2019-01-20T10:36:26.762Z,26.70
2019-01-20T10:39:30.002Z,25.63
2019-01-20T10:42:33.198Z,29.90
2019-01-20T10:45:36.394Z,25.40
2019-01-20T10:48:39.586Z,22.53
2019-01-20T10:51:42.887Z,22.57
2019-01-20T10:54:45.979Z,20.63
2019-01-20T10:57:49.174Z,22.33
2019-01-20T11:00:53.389Z,22.90
2019-01-20T11:03:56.621Z,24.03
2019-01-20T11:06:59.890Z,24.60
2019-01-20T11:10:04.446Z,23.00
2019-01-20T11:13:07.706Z,24.77
2019-01-20T11:16:11.054Z,24.13
2019-01-20T11:19:14.303Z,22.93
2019-01-20T11:22:17.638Z,22.90
2019-01-20T11:25:26.602Z,20.97
2019-01-20T11:28:29.763Z,23.40
2019-01-20T11:31:32.922Z,25.70
2019-01-20T11:34:37.175Z,24.10
2019-01-20T11:37:40.234Z,26.73
2019-01-20T11:40:43.745Z,22.37
2019-01-20T11:43:46.930Z,23.97
2019-01-20T11:46:50.310Z,20.40
2019-01-20T11:49:53.425Z,21.80
2019-01-20T11:52:56.554Z,22.47
2019-01-20T11:55:59.707Z,20.00
2019-01-20T11:59:03.154Z,21.67
2019-01-20T12:02:06.405Z,22.07
2019-01-20T12:05:10.658Z,19.77
2019-01-20T12:08:13.823Z,17.93
2019-01-20T12:11:18.608Z,18.23
2019-01-20T12:14:24.162Z,18.53
2019-01-20T12:17:26.722Z,19.93
2019-01-20T12:20:29.985Z,18.63
2019-01-20T12:23:33.656Z,20.63
2019-01-20T12:26:36.678Z,24.77
2019-01-20T12:29:39.990Z,19.93
2019-01-20T12:32:43.173Z,21.33
2019-01-20T12:35:46.399Z,21.60
2019-01-20T12:38:49.465Z,20.83
2019-01-20T12:41:53.102Z,22.53
2019-01-20T12:44:56.258Z,23.77
2019-01-20T12:47:59.494Z,21.50
2019-01-20T12:51:02.668Z,19.83
2019-01-20T12:54:05.986Z,24.13
2019-01-20T12:57:09.038Z,23.80
2019-01-20T13:00:14.972Z,19.30
2019-01-20T13:03:18.194Z,21.27
2019-01-20T13:06:21.356Z,22.07
2019-01-20T13:09:24.486Z,22.63
2019-01-20T13:12:27.616Z,20.83
2019-01-20T13:15:30.670Z,19.27
2019-01-20T13:18:33.939Z,18.77
2019-01-20T13:21:38.759Z,17.23
2019-01-20T13:24:41.970Z,16.23
2019-01-20T13:27:45.086Z,17.53
2019-01-20T13:30:48.341Z,16.73
2019-01-20T13:33:52.398Z,14.27
2019-01-20T13:36:55.707Z,18.60
2019-01-20T13:39:58.891Z,19.53
2019-01-20T13:43:02.485Z,18.30
2019-01-20T13:46:05.690Z,19.40
2019-01-20T13:49:08.890Z,16.90
2019-01-20T13:52:13.102Z,15.47
2019-01-20T13:55:16.301Z,17.70
2019-01-20T13:58:19.394Z,15.33
2019-01-20T14:01:22.594Z,14.27
2019-01-20T14:04:25.682Z,14.70
2019-01-20T14:07:28.877Z,15.53
2019-01-20T14:10:33.266Z,15.67
2019-01-20T14:13:36.400Z,18.47
2019-01-20T14:16:39.593Z,18.80
2019-01-20T14:19:42.683Z,26.00
2019-01-20T14:22:47.325Z,16.70
2019-01-20T14:25:51.399Z,14.53
2019-01-20T14:28:54.438Z,16.03
2019-01-20T14:31:57.637Z,17.33
2019-01-20T14:35:03.289Z,14.43
2019-01-20T14:38:06.582Z,12.40
2019-01-20T14:41:09.677Z,12.13
2019-01-20T14:44:12.871Z,17.20
2019-01-20T14:47:16.063Z,16.23
2019-01-20T14:50:23.065Z,14.43
2019-01-20T14:53:26.249Z,13.03
2019-01-20T14:56:29.540Z,13.03
2019-01-20T14:59:32.634Z,13.43
2019-01-20T15:02:35.730Z,11.87
2019-01-20T15:05:38.922Z,12.87
2019-01-20T15:08:43.286Z,12.80
2019-01-20T15:11:46.338Z,12.93
2019-01-20T15:14:49.677Z,12.37
2019-01-20T15:17:52.725Z,15.03
2019-01-20T15:20:55.974Z,14.97
2019-01-20T15:23:59.117Z,15.40
2019-01-20T15:27:02.666Z,16.80
2019-01-20T15:30:10.143Z,14.90
2019-01-20T15:33:13.458Z,18.43
2019-01-20T15:36:16.510Z,14.43
2019-01-20T15:39:19.642Z,17.57
2019-01-20T15:42:22.694Z,12.90
2019-01-20T15:45:25.938Z,16.37
2019-01-20T15:48:28.978Z,14.70
2019-01-20T15:51:32.242Z,13.63
2019-01-20T15:54:35.607Z,11.43
2019-01-20T15:57:38.918Z,11.23
2019-01-20T16:00:41.968Z,10.73
2019-01-20T16:03:45.254Z,13.03
2019-01-20T16:06:48.434Z,11.87
2019-01-20T16:09:51.594Z,11.67
2019-01-20T16:12:54.846Z,9.60
2019-01-20T16:15:58.084Z,10.23
2019-01-20T16:19:01.134Z,11.10
2019-01-20T16:22:04.342Z,10.90
2019-01-20T16:25:13.426Z,11.23
2019-01-20T16:28:17.064Z,10.90
2019-01-20T16:31:20.163Z,11.80
2019-01-20T16:34:23.410Z,11.43
2019-01-20T16:37:26.554Z,11.40
2019-01-20T16:40:30.006Z,8.97
2019-01-20T16:43:33.146Z,9.53
2019-01-20T16:46:36.450Z,8.87
2019-01-20T16:49:41.210Z,10.20
2019-01-20T16:52:44.402Z,9.57
2019-01-20T16:55:49.262Z,8.60
2019-01-20T16:58:52.339Z,8.73
2019-01-20T17:01:55.390Z,10.10
2019-01-20T17:04:58.657Z,9.43
2019-01-20T17:08:01.887Z,9.90
2019-01-20T17:11:05.120Z,12.07
2019-01-20T17:14:08.270Z,11.67
2019-01-20T17:17:11.409Z,10.67
2019-01-20T17:20:15.141Z,8.03
2019-01-20T17:23:18.302Z,10.70
2019-01-20T17:26:21.461Z,8.87
2019-01-20T17:29:24.706Z,8.50
2019-01-20T17:32:27.854Z,9.53
2019-01-20T17:35:30.953Z,9.97
2019-01-20T17:38:34.042Z,9.90
2019-01-20T17:41:37.242Z,10.83
2019-01-20T17:44:40.326Z,11.63
2019-01-20T17:47:44.249Z,11.13
2019-01-20T17:50:47.534Z,11.53
2019-01-20T17:53:50.865Z,7.87
2019-01-20T17:56:55.137Z,9.93
2019-01-20T17:59:59.314Z,7.17
2019-01-20T18:03:04.099Z,9.97
2019-01-20T18:06:08.178Z,7.93
2019-01-20T18:09:12.831Z,8.80
2019-01-20T18:12:16.559Z,9.97
2019-01-20T18:15:20.682Z,8.60
2019-01-20T18:18:24.193Z,16.47
2019-01-20T18:21:27.734Z,7.90
2019-01-20T18:24:31.550Z,6.93
2019-01-20T18:27:34.930Z,7.40
2019-01-20T18:30:39.063Z,7.57
2019-01-20T18:33:42.961Z,6.87
2019-01-20T18:36:47.118Z,8.07
2019-01-20T18:39:51.101Z,7.90
2019-01-20T18:42:54.460Z,9.27
2019-01-20T18:46:01.786Z,10.93
2019-01-20T18:49:05.142Z,9.73
2019-01-20T18:52:09.353Z,8.30
2019-01-20T18:55:13.680Z,11.60
2019-01-20T18:58:17.849Z,10.60
2019-01-20T19:01:21.983Z,10.63
2019-01-20T19:04:25.873Z,10.93
2019-01-20T19:07:30.257Z,8.20
2019-01-20T19:10:34.142Z,10.03
2019-01-20T19:13:37.886Z,14.90
2019-01-20T19:16:42.066Z,23.97
2019-01-20T19:19:46.224Z,11.97
2019-01-20T19:22:51.618Z,9.03
2019-01-20T19:25:55.671Z,8.53
2019-01-20T19:29:03.142Z,9.00
2019-01-20T19:32:06.370Z,9.00
2019-01-20T19:35:10.986Z,9.23
2019-01-20T19:38:15.302Z,7.77
2019-01-20T19:41:18.918Z,7.97
2019-01-20T19:44:23.463Z,9.70
2019-01-20T19:47:28.036Z,10.37
2019-01-20T19:50:32.699Z,10.83
2019-01-20T19:53:36.371Z,9.93
2019-01-20T19:56:40.176Z,7.30
2019-01-20T19:59:44.576Z,8.67
2019-01-20T20:02:48.692Z,8.57
2019-01-20T20:05:52.605Z,8.80
2019-01-20T20:08:56.711Z,8.53
2019-01-20T20:12:00.803Z,8.00
2019-01-20T20:15:06.876Z,9.00
2019-01-20T20:18:11.339Z,9.43
2019-01-20T20:21:15.208Z,9.40
2019-01-20T20:24:25.090Z,10.47
2019-01-20T20:27:23.497Z,7.90
2019-01-20T20:30:35.205Z,7.27
2019-01-20T20:33:39.145Z,7.77
2019-01-20T20:36:43.523Z,9.10
2019-01-20T20:39:48.859Z,10.07
2019-01-20T20:42:52.862Z,9.27
2019-01-20T20:45:57.281Z,9.27
2019-01-20T20:49:01.110Z,9.70
2019-01-20T20:52:04.826Z,10.67
2019-01-20T20:55:10.412Z,10.60
2019-01-20T20:58:14.354Z,9.83
2019-01-20T21:01:17.522Z,8.87
2019-01-20T21:04:20.766Z,8.47
2019-01-20T21:07:24.018Z,9.87
2019-01-20T21:10:28.051Z,11.17
2019-01-20T21:13:31.844Z,10.27
2019-01-20T21:16:38.031Z,10.07
2019-01-20T21:19:40.964Z,9.67
2019-01-20T21:22:45.302Z,10.80
2019-01-20T21:25:48.843Z,11.00
2019-01-20T21:28:52.590Z,11.23
2019-01-20T21:31:56.438Z,11.80
2019-01-20T21:35:00.402Z,11.50
2019-01-20T21:38:06.856Z,12.50
2019-01-20T21:41:09.310Z,13.20
2019-01-20T21:44:13.764Z,11.90
2019-01-20T21:47:17.510Z,11.63
2019-01-20T21:50:23.574Z,12.53
2019-01-20T21:53:27.526Z,10.73
2019-01-20T21:56:31.712Z,11.30
2019-01-20T21:59:35.869Z,10.53
2019-01-20T22:02:39.443Z,11.57
2019-01-20T22:05:43.274Z,10.57
2019-01-20T22:08:46.354Z,11.90
2019-01-20T22:11:49.451Z,11.07
2019-01-20T22:14:52.537Z,10.80
2019-01-20T22:17:55.737Z,12.27
2019-01-20T22:20:58.827Z,10.57
2019-01-20T22:24:02.023Z,9.90
2019-01-20T22:27:05.114Z,9.83
2019-01-20T22:30:13.810Z,10.80
2019-01-20T22:33:16.932Z,10.27
2019-01-20T22:36:20.029Z,11.47
2019-01-20T22:39:23.122Z,11.40
2019-01-20T22:42:26.358Z,10.97
2019-01-20T22:45:29.502Z,11.17
2019-01-20T22:48:32.636Z,9.60
2019-01-20T22:51:35.794Z,10.33
2019-01-20T22:54:39.034Z,8.20
2019-01-20T22:57:42.183Z,9.33
2019-01-20T23:00:52.191Z,9.33
2019-01-20T23:03:55.334Z,8.67
2019-01-20T23:06:58.988Z,9.77
2019-01-20T23:10:02.186Z,9.80
2019-01-20T23:13:06.419Z,8.53
2019-01-20T23:16:09.546Z,9.03
2019-01-20T23:19:12.815Z,9.00
2019-01-20T23:22:15.834Z,10.20
2019-01-20T23:25:19.082Z,9.63
2019-01-20T23:28:22.334Z,9.87
2019-01-20T23:31:25.573Z,9.20
2019-01-20T23:34:28.919Z,9.80
2019-01-20T23:37:32.154Z,10.40
2019-01-20T23:40:35.214Z,9.00
2019-01-20T23:43:38.342Z,10.90
2019-01-20T23:46:41.498Z,9.03
2019-01-20T23:49:44.950Z,8.40
2019-01-20T23:52:48.139Z,8.80
2019-01-20T23:55:51.442Z,7.50
2019-01-20T23:58:54.612Z,8.10
